Dryden, Michigan
Current Conditions -  °F | °C
As of 10:13 PM on Friday 21 Nov 2014 (Local Time) from KD95 Reporting Station
Clear Clear  
Wind Chill: 11°   Ceiling: Unl
Heat Index: 21°   Visibility: 10mi
Dew Point: 13°   Wind: 9mph
Humidity: 70%   Direction: 210°SSW
Pressure: 30.32"   Gusts: NA
Location:  42.95°N, 83.12°W
Report Text: KD95 220313Z AUTO 21008KT 10SM CLR M06/M11 A3032 RMK AO2 T10611108
Loading
Personal Weather Stations






























Interactive Weather Map New forecast layout! Learn more

10-Day Weather Forecast

Advertisements
Track Severe Weather on mobile